Time;durP1;ratioP1;P1;durP2;ratioP2;P2;SDS_P1;SDS_P2;PMS_P1;PMS_P2;Temp;Humidity;BMP_temperature;BMP_pressure;BME280_temperature;BME280_humidity;BME280_pressure;Samples;Min_cycle;Max_cycle;Signal;HPM_P1;HPM_P2
2022/05/16 00:02:07;;;;;;;6.47;2.30;;;;;;;;;;4391463;32;20665;-85
2022/05/16 00:04:36;;;;;;;9.35;2.85;;;;;;;;;;4391820;32;20582;-84
2022/05/16 00:07:02;;;;;;;6.12;2.47;;;;;;;;;;4391422;32;20554;-85
2022/05/16 00:09:27;;;;;;;7.85;2.28;;;;;;;;;;4391316;32;20230;-85
2022/05/16 00:11:53;;;;;;;9.80;2.42;;;;;;;;;;4391678;32;20190;-85
2022/05/16 00:14:20;;;;;;;7.85;2.33;;;;;;;;;;4391706;32;20206;-85
2022/05/16 00:16:46;;;;;;;6.22;2.33;;;;;;;;;;4391382;32;20540;-85
2022/05/16 00:19:11;;;;;;;6.37;2.50;;;;;;;;;;4391239;32;20272;-85
2022/05/16 00:21:38;;;;;;;11.60;3.00;;;;;;;;;;4377591;32;20190;-84
2022/05/16 00:24:06;;;;;;;4.68;2.50;;;;;;;;;;4377093;32;20570;-84
2022/05/16 00:26:34;;;;;;;7.70;3.03;;;;;;;;;;4377695;32;20578;-84
2022/05/16 00:29:00;;;;;;;6.47;3.00;;;;;;;;;;4390881;32;20583;-85
2022/05/16 00:31:26;;;;;;;5.90;2.33;;;;;;;;;;4391289;32;20603;-84
2022/05/16 00:33:52;;;;;;;6.00;2.12;;;;;;;;;;4391110;32;20748;-85
2022/05/16 00:36:17;;;;;;;6.72;2.65;;;;;;;;;;4391206;32;20208;-84
2022/05/16 00:38:43;;;;;;;3.17;2.47;;;;;;;;;;4390867;32;20206;-85
2022/05/16 00:41:09;;;;;;;4.60;2.12;;;;;;;;;;4390795;32;20190;-86
2022/05/16 00:43:46;;;;;;;4.10;2.05;;;;;;;;;;4377765;32;20271;-85
2022/05/16 00:46:17;;;;;;;2.42;1.85;;;;;;;;;;4391075;32;20744;-86
2022/05/16 00:48:42;;;;;;;2.70;1.58;;;;;;;;;;4391373;32;20627;-86
2022/05/16 00:51:26;;;;;;;5.22;2.10;;;;;;;;;;4390784;32;20174;-86
2022/05/16 00:53:57;;;;;;;4.55;2.37;;;;;;;;;;4377187;32;20767;-88
2022/05/16 00:56:25;;;;;;;2.85;2.22;;;;;;;;;;4390861;32;20563;-85
2022/05/16 00:58:52;;;;;;;3.03;2.28;;;;;;;;;;4390842;32;20497;-85
2022/05/16 01:06:50;;;;;;;4.78;2.20;;;;;;;;;;4391330;32;20201;-85
2022/05/16 01:09:15;;;;;;;3.92;2.25;;;;;;;;;;4390765;32;20497;-86
2022/05/16 01:11:41;;;;;;;4.40;2.15;;;;;;;;;;4391028;32;20182;-85
2022/05/16 01:14:07;;;;;;;3.25;2.10;;;;;;;;;;4376998;32;20240;-85
2022/05/16 01:16:33;;;;;;;5.15;1.90;;;;;;;;;;4377425;32;20214;-85
2022/05/16 01:18:59;;;;;;;7.07;2.20;;;;;;;;;;4390681;32;20648;-85
2022/05/16 01:21:37;;;;;;;6.07;2.00;;;;;;;;;;4390937;32;20528;-85
2022/05/16 01:24:29;;;;;;;2.85;1.60;;;;;;;;;;4390481;32;20213;-85
2022/05/16 01:26:55;;;;;;;4.32;1.95;;;;;;;;;;4375236;32;20540;-85
2022/05/16 01:29:20;;;;;;;3.92;2.53;;;;;;;;;;4390291;32;20296;-84
2022/05/16 01:31:46;;;;;;;5.70;2.60;;;;;;;;;;4390342;32;20209;-84
2022/05/16 01:34:13;;;;;;;9.95;2.00;;;;;;;;;;4376951;32;20740;-85
2022/05/16 01:36:39;;;;;;;4.65;2.12;;;;;;;;;;4376295;32;20556;-85
2022/05/16 01:39:05;;;;;;;3.75;2.15;;;;;;;;;;4376871;32;20237;-86
2022/05/16 01:41:31;;;;;;;2.58;1.98;;;;;;;;;;4390314;32;20591;-85
2022/05/16 01:44:00;;;;;;;3.75;2.30;;;;;;;;;;4390320;32;20335;-85
2022/05/16 01:46:33;;;;;;;3.60;2.15;;;;;;;;;;4390788;32;20689;-86
2022/05/16 01:48:59;;;;;;;5.72;2.20;;;;;;;;;;4390330;32;20708;-88
2022/05/16 01:51:25;;;;;;;3.33;2.17;;;;;;;;;;4390954;32;20523;-86
2022/05/16 01:53:52;;;;;;;4.32;2.33;;;;;;;;;;4377376;32;20551;-86
2022/05/16 01:56:18;;;;;;;4.82;2.28;;;;;;;;;;4390994;32;20465;-85
2022/05/16 01:58:44;;;;;;;6.60;2.62;;;;;;;;;;4377183;32;20434;-89
2022/05/16 02:01:12;;;;;;;3.47;2.03;;;;;;;;;;4377533;32;20627;-86
2022/05/16 02:03:44;;;;;;;3.33;2.15;;;;;;;;;;4377140;32;20209;-87
2022/05/16 02:06:11;;;;;;;4.28;2.45;;;;;;;;;;4391271;32;20501;-86
2022/05/16 02:08:37;;;;;;;3.65;2.55;;;;;;;;;;4379608;32;20594;-89
2022/05/16 02:11:05;;;;;;;6.05;2.90;;;;;;;;;;4393685;32;20641;-87
2022/05/16 02:13:33;;;;;;;9.57;2.58;;;;;;;;;;4393615;32;20736;-86
2022/05/16 02:15:59;;;;;;;2.87;1.85;;;;;;;;;;4379726;32;20571;-87
2022/05/16 02:18:26;;;;;;;13.40;2.80;;;;;;;;;;4393799;32;20225;-86
2022/05/16 02:24:38;;;;;;;5.43;2.60;;;;;;;;;;4379892;32;20579;-89
2022/05/16 02:26:22;;;;;;;6.57;2.12;;;;;;;;;;4397073;32;20228;-88
2022/05/16 02:28:48;;;;;;;10.18;2.10;;;;;;;;;;4383420;32;20218;-86
2022/05/16 02:31:14;;;;;;;4.22;3.03;;;;;;;;;;4382831;32;20214;-85
2022/05/16 02:33:39;;;;;;;4.25;1.92;;;;;;;;;;4382796;32;20646;-84
2022/05/16 02:36:05;;;;;;;4.45;2.53;;;;;;;;;;4398228;32;20216;-87
2022/05/16 02:38:31;;;;;;;4.80;2.45;;;;;;;;;;4382849;32;20661;-85
2022/05/16 02:40:57;;;;;;;5.40;3.97;;;;;;;;;;4383049;32;20226;-84
2022/05/16 02:43:23;;;;;;;6.95;4.07;;;;;;;;;;4395868;32;20296;-85
2022/05/16 02:45:49;;;;;;;4.22;2.72;;;;;;;;;;4397120;32;20224;-85
2022/05/16 02:48:14;;;;;;;6.53;2.67;;;;;;;;;;4395815;32;20670;-86
2022/05/16 02:50:40;;;;;;;4.05;2.42;;;;;;;;;;4381978;32;20213;-86
2022/05/16 02:53:07;;;;;;;6.20;3.22;;;;;;;;;;4394758;32;20275;-86
2022/05/16 02:55:33;;;;;;;8.07;3.40;;;;;;;;;;4395278;32;20261;-85
2022/05/16 02:57:59;;;;;;;4.68;2.92;;;;;;;;;;4394750;32;20674;-86
2022/05/16 03:00:25;;;;;;;9.55;3.42;;;;;;;;;;4395750;32;20598;-86
2022/05/16 03:02:51;;;;;;;8.82;2.60;;;;;;;;;;4395533;32;20201;-87
2022/05/16 03:05:17;;;;;;;8.10;2.83;;;;;;;;;;4382866;32;20241;-87
2022/05/16 03:07:43;;;;;;;5.70;3.87;;;;;;;;;;4396331;32;20423;-87
2022/05/16 03:10:11;;;;;;;4.87;2.70;;;;;;;;;;4395825;32;20611;-85
2022/05/16 03:12:37;;;;;;;7.30;2.47;;;;;;;;;;4396052;32;20210;-85
2022/05/16 03:15:03;;;;;;;4.80;2.95;;;;;;;;;;4396642;32;20261;-86
2022/05/16 03:17:29;;;;;;;5.25;2.50;;;;;;;;;;4397509;32;20218;-85
2022/05/16 03:19:54;;;;;;;4.70;2.50;;;;;;;;;;4382080;32;20271;-87
2022/05/16 03:22:20;;;;;;;5.90;4.00;;;;;;;;;;4382756;32;20209;-86
2022/05/16 03:24:46;;;;;;;11.02;3.12;;;;;;;;;;4396258;32;20257;-79
2022/05/16 03:27:11;;;;;;;6.40;2.95;;;;;;;;;;4399021;32;20206;-79
2022/05/16 03:29:38;;;;;;;5.90;2.50;;;;;;;;;;4401814;32;20201;-90
2022/05/16 03:32:06;;;;;;;3.75;3.00;;;;;;;;;;4402932;32;20216;-91
2022/05/16 03:34:32;;;;;;;8.00;3.12;;;;;;;;;;4387054;32;20725;-91
2022/05/16 03:36:58;;;;;;;4.57;3.03;;;;;;;;;;4382537;32;20583;-89
2022/05/16 03:42:08;;;;;;;5.75;2.67;;;;;;;;;;4393996;32;20371;-85
2022/05/16 03:44:34;;;;;;;5.60;3.30;;;;;;;;;;4379890;32;20544;-85
2022/05/16 03:47:00;;;;;;;5.53;3.37;;;;;;;;;;4394799;32;20257;-88
2022/05/16 03:49:26;;;;;;;7.57;4.00;;;;;;;;;;4393566;32;20269;-93
2022/05/16 03:51:52;;;;;;;11.02;4.18;;;;;;;;;;4393841;32;20280;-93
2022/05/16 03:54:19;;;;;;;10.25;4.50;;;;;;;;;;4393921;32;20257;-94
2022/05/16 03:56:45;;;;;;;9.53;3.80;;;;;;;;;;4393816;32;20186;-92
2022/05/16 03:59:11;;;;;;;8.73;3.87;;;;;;;;;;4393341;32;20654;-92
2022/05/16 04:01:39;;;;;;;10.60;3.17;;;;;;;;;;4379430;32;20272;-91
2022/05/16 04:04:05;;;;;;;4.97;2.70;;;;;;;;;;4392537;32;20562;-92
2022/05/16 04:06:34;;;;;;;5.03;2.80;;;;;;;;;;4379764;32;20237;-92
2022/05/16 04:09:00;;;;;;;6.78;3.37;;;;;;;;;;4393266;32;20635;-89
2022/05/16 04:11:27;;;;;;;10.73;2.78;;;;;;;;;;4392315;32;20585;-89
2022/05/16 04:13:53;;;;;;;6.68;3.05;;;;;;;;;;4393313;32;20730;-89
2022/05/16 04:16:19;;;;;;;5.28;2.90;;;;;;;;;;4366895;32;20612;-89
2022/05/16 04:18:46;;;;;;;8.65;3.45;;;;;;;;;;4393285;32;20320;-90
2022/05/16 04:21:13;;;;;;;13.43;5.87;;;;;;;;;;4380560;32;20669;-89
2022/05/16 04:23:40;;;;;;;11.23;6.25;;;;;;;;;;4383465;32;20619;-81
2022/05/16 04:26:05;;;;;;;11.57;6.32;;;;;;;;;;4401673;32;20629;-89
2022/05/16 04:28:31;;;;;;;9.75;6.35;;;;;;;;;;4406464;32;20211;-88
2022/05/16 04:30:58;;;;;;;9.90;5.55;;;;;;;;;;4406857;32;20184;-88
2022/05/16 04:33:24;;;;;;;17.73;5.80;;;;;;;;;;4393037;32;20244;-88
2022/05/16 04:35:50;;;;;;;14.05;5.32;;;;;;;;;;4390385;32;20627;-87
2022/05/16 04:38:17;;;;;;;5.82;4.07;;;;;;;;;;4399274;32;20611;-87
2022/05/16 04:43:32;;;;;;;7.20;4.30;;;;;;;;;;4404342;32;20232;-88
2022/05/16 04:46:01;;;;;;;13.10;5.20;;;;;;;;;;4373547;32;20678;-87
2022/05/16 04:48:27;;;;;;;15.52;4.35;;;;;;;;;;4400571;27;20613;-52
2022/05/16 04:50:52;;;;;;;7.80;4.12;;;;;;;;;;4410063;32;20303;-52
2022/05/16 04:53:18;;;;;;;15.05;5.03;;;;;;;;;;4417498;32;20257;-52
2022/05/16 04:55:43;;;;;;;8.77;3.85;;;;;;;;;;4417822;32;20351;-53
2022/05/16 04:58:09;;;;;;;12.52;4.03;;;;;;;;;;4415474;32;20604;-54
2022/05/16 05:00:34;;;;;;;10.25;4.30;;;;;;;;;;4414924;32;20243;-53
2022/05/16 05:02:59;;;;;;;6.97;3.60;;;;;;;;;;4415712;32;20557;-53
2022/05/16 05:05:25;;;;;;;8.38;3.78;;;;;;;;;;4414091;32;20273;-54
2022/05/16 05:07:50;;;;;;;9.07;4.60;;;;;;;;;;4418009;32;20225;-54
2022/05/16 05:15:49;;;;;;;6.55;3.75;;;;;;;;;;4416932;32;20248;-54
2022/05/16 05:18:14;;;;;;;7.37;4.03;;;;;;;;;;4417398;32;20233;-54
2022/05/16 05:20:40;;;;;;;12.48;4.18;;;;;;;;;;4417321;32;20260;-54
2022/05/16 05:23:05;;;;;;;7.37;3.92;;;;;;;;;;4417890;32;20742;-52
2022/05/16 05:25:31;;;;;;;7.43;3.10;;;;;;;;;;4408966;32;20229;-52
2022/05/16 05:28:02;;;;;;;8.32;2.80;;;;;;;;;;4402898;32;20233;-52
2022/05/16 05:30:30;;;;;;;4.97;2.80;;;;;;;;;;4430805;32;20215;-53
2022/05/16 05:32:56;;;;;;;7.93;3.03;;;;;;;;;;4433238;32;20332;-53
2022/05/16 05:35:21;;;;;;;5.05;2.87;;;;;;;;;;4432696;32;20305;-53
2022/05/16 05:37:47;;;;;;;4.68;3.40;;;;;;;;;;4429654;32;20225;-54
2022/05/16 05:40:14;;;;;;;5.28;3.08;;;;;;;;;;4416927;32;20228;-52
2022/05/16 05:42:40;;;;;;;6.35;2.90;;;;;;;;;;4416174;32;20253;-53
2022/05/16 05:45:07;;;;;;;8.32;4.10;;;;;;;;;;4418319;32;20633;-53
2022/05/16 05:47:33;;;;;;;6.18;3.20;;;;;;;;;;4417980;32;20352;-53
2022/05/16 05:50:02;;;;;;;3.60;2.40;;;;;;;;;;4417883;32;20282;-53
2022/05/16 05:52:30;;;;;;;7.55;3.47;;;;;;;;;;4417789;32;20753;-53
2022/05/16 05:54:56;;;;;;;5.50;3.08;;;;;;;;;;4417602;32;20276;-54
2022/05/16 05:57:22;;;;;;;6.30;3.35;;;;;;;;;;4418130;32;20299;-53
2022/05/16 05:59:48;;;;;;;7.00;3.42;;;;;;;;;;4417695;32;20350;-53
2022/05/16 06:02:14;;;;;;;5.70;2.75;;;;;;;;;;4420193;32;20443;-53
2022/05/16 06:04:40;;;;;;;6.30;3.70;;;;;;;;;;4433071;32;20243;-53
2022/05/16 06:07:06;;;;;;;4.90;2.92;;;;;;;;;;4406238;32;20772;-53
2022/05/16 06:09:31;;;;;;;5.40;3.12;;;;;;;;;;4403004;32;20322;-55
2022/05/16 06:11:57;;;;;;;6.20;3.03;;;;;;;;;;4402891;32;20221;-54
2022/05/16 06:14:23;;;;;;;13.65;3.62;;;;;;;;;;4402500;32;20289;-53
2022/05/16 06:16:48;;;;;;;7.00;3.17;;;;;;;;;;4402279;32;20193;-56
2022/05/16 06:19:13;;;;;;;7.03;2.97;;;;;;;;;;4401546;32;20415;-53
2022/05/16 06:21:39;;;;;;;4.53;2.72;;;;;;;;;;4409127;32;20258;-52
2022/05/16 06:25:31;;;;;;;3.90;2.22;;;;;;;;;;4407192;32;20279;-54
2022/05/16 06:26:51;;;;;;;5.70;2.85;;;;;;;;;;4401315;32;20229;-54
2022/05/16 06:29:16;;;;;;;4.10;2.22;;;;;;;;;;4414806;32;20291;-55
2022/05/16 06:31:42;;;;;;;5.10;3.12;;;;;;;;;;4432112;32;20597;-54
2022/05/16 06:34:08;;;;;;;6.97;3.10;;;;;;;;;;4432228;32;20258;-53
2022/05/16 06:36:33;;;;;;;8.80;3.62;;;;;;;;;;4417533;32;20304;-54
2022/05/16 06:38:59;;;;;;;6.60;3.50;;;;;;;;;;4420101;32;20592;-53
2022/05/16 06:41:24;;;;;;;4.40;2.25;;;;;;;;;;4416334;32;20779;-55
2022/05/16 06:43:50;;;;;;;4.15;2.92;;;;;;;;;;4416397;32;20711;-54
2022/05/16 06:46:15;;;;;;;6.78;3.15;;;;;;;;;;4416418;32;20665;-55
2022/05/16 06:48:40;;;;;;;7.87;2.70;;;;;;;;;;4415915;32;20311;-54
2022/05/16 06:51:06;;;;;;;6.10;3.00;;;;;;;;;;4416790;32;20255;-54
2022/05/16 06:53:31;;;;;;;6.55;3.35;;;;;;;;;;4417568;32;20525;-53
2022/05/16 06:55:58;;;;;;;4.93;2.55;;;;;;;;;;4419785;32;20201;-53
2022/05/16 06:58:25;;;;;;;5.53;2.70;;;;;;;;;;4418965;32;20251;-53
2022/05/16 07:00:50;;;;;;;5.55;3.12;;;;;;;;;;4419743;32;20609;-53
2022/05/16 07:03:16;;;;;;;4.43;3.28;;;;;;;;;;4419279;32;20307;-53
2022/05/16 07:05:42;;;;;;;6.05;3.25;;;;;;;;;;4398576;32;20242;-54
2022/05/16 07:08:08;;;;;;;4.18;2.97;;;;;;;;;;4403183;32;20662;-54
2022/05/16 07:10:33;;;;;;;5.43;2.95;;;;;;;;;;4404016;32;20321;-54
2022/05/16 07:12:59;;;;;;;2.80;2.25;;;;;;;;;;4404067;32;20274;-54
2022/05/16 07:15:25;;;;;;;10.18;2.83;;;;;;;;;;4403731;32;20863;-56
2022/05/16 07:17:50;;;;;;;3.72;2.85;;;;;;;;;;4411050;32;20237;-54
2022/05/16 07:20:17;;;;;;;5.80;2.92;;;;;;;;;;4410765;32;20233;-54
2022/05/16 07:22:45;;;;;;;12.95;3.00;;;;;;;;;;4403694;32;20544;-54
2022/05/16 07:25:16;;;;;;;9.27;3.08;;;;;;;;;;4403771;32;20236;-53
2022/05/16 07:27:59;;;;;;;5.40;2.78;;;;;;;;;;4403948;32;20213;-53
2022/05/16 07:30:33;;;;;;;4.32;3.00;;;;;;;;;;4431209;32;20309;-53
2022/05/16 07:33:00;;;;;;;3.83;2.33;;;;;;;;;;4434148;32;20232;-53
2022/05/16 07:35:30;;;;;;;12.70;2.83;;;;;;;;;;4433995;32;20288;-53
2022/05/16 07:37:56;;;;;;;6.70;2.95;;;;;;;;;;4414945;32;20255;-54
2022/05/16 07:40:24;;;;;;;5.68;2.85;;;;;;;;;;4418842;32;20232;-55
2022/05/16 07:42:50;;;;;;;5.40;2.40;;;;;;;;;;4418302;32;20328;-53
2022/05/16 07:45:17;;;;;;;3.25;2.50;;;;;;;;;;4418316;32;20267;-54
2022/05/16 07:47:42;;;;;;;6.87;2.62;;;;;;;;;;4418209;32;20291;-54
2022/05/16 07:50:09;;;;;;;11.55;3.58;;;;;;;;;;4418881;32;20221;-54
2022/05/16 07:52:36;;;;;;;7.32;2.75;;;;;;;;;;4418692;32;20271;-54
2022/05/16 07:55:02;;;;;;;4.65;2.33;;;;;;;;;;4418076;32;20335;-54
2022/05/16 07:57:27;;;;;;;7.47;2.53;;;;;;;;;;4418598;32;20677;-54
2022/05/16 07:59:53;;;;;;;7.75;2.17;;;;;;;;;;4401519;32;20339;-54
2022/05/16 08:02:18;;;;;;;2.62;2.00;;;;;;;;;;4403062;32;20261;-53
2022/05/16 08:04:44;;;;;;;3.83;2.90;;;;;;;;;;4402828;32;20681;-53
2022/05/16 08:07:10;;;;;;;4.43;2.33;;;;;;;;;;4400131;32;20229;-54
2022/05/16 08:12:28;;;;;;;3.08;1.98;;;;;;;;;;4399914;32;20308;-53
2022/05/16 08:14:54;;;;;;;4.57;2.25;;;;;;;;;;4413693;32;20359;-54
2022/05/16 08:17:20;;;;;;;3.97;1.98;;;;;;;;;;4418247;32;20507;-53
2022/05/16 08:19:47;;;;;;;4.68;2.40;;;;;;;;;;4417362;32;20678;-53
2022/05/16 08:22:13;;;;;;;17.83;2.35;;;;;;;;;;4418096;32;20639;-54
2022/05/16 08:24:38;;;;;;;3.45;2.30;;;;;;;;;;4418304;32;20314;-54
2022/05/16 08:27:04;;;;;;;4.40;2.58;;;;;;;;;;4418085;32;20613;-53
2022/05/16 08:29:30;;;;;;;5.32;2.33;;;;;;;;;;4426207;32;20288;-54
2022/05/16 08:31:56;;;;;;;8.77;2.37;;;;;;;;;;4433571;32;20593;-54
2022/05/16 08:34:23;;;;;;;3.55;2.25;;;;;;;;;;4433237;32;20768;-55
2022/05/16 08:42:19;;;;;;;4.80;1.95;;;;;;;;;;4418006;32;20267;-53
2022/05/16 08:45:02;;;;;;;7.70;1.80;;;;;;;;;;4417646;32;20210;-53
2022/05/16 08:47:27;;;;;;;5.25;1.90;;;;;;;;;;4417706;32;20279;-53
2022/05/16 08:49:56;;;;;;;3.30;2.08;;;;;;;;;;4417596;32;20813;-54
2022/05/16 08:52:44;;;;;;;7.85;2.62;;;;;;;;;;4417519;32;20519;-54
2022/05/16 08:55:39;;;;;;;5.28;2.62;;;;;;;;;;4407437;32;20236;-54
2022/05/16 08:58:21;;;;;;;5.07;2.75;;;;;;;;;;4402559;32;20221;-54
2022/05/16 09:00:52;;;;;;;6.90;2.40;;;;;;;;;;4402529;32;20297;-54
2022/05/16 09:03:46;;;;;;;4.37;2.12;;;;;;;;;;4395999;32;20311;-54
2022/05/16 09:06:22;;;;;;;7.95;2.17;;;;;;;;;;4409165;32;20269;-53
2022/05/16 09:09:11;;;;;;;9.07;2.30;;;;;;;;;;4417470;32;20526;-53
2022/05/16 09:11:53;;;;;;;4.70;2.03;;;;;;;;;;4417728;32;20437;-53
2022/05/16 09:14:37;;;;;;;6.60;2.35;;;;;;;;;;4417699;32;20185;-53
2022/05/16 09:17:27;;;;;;;5.25;2.00;;;;;;;;;;4417104;32;20247;-53
2022/05/16 09:19:55;;;;;;;6.75;2.28;;;;;;;;;;4417436;32;20510;-54
2022/05/16 09:22:28;;;;;;;5.80;2.17;;;;;;;;;;4417524;32;20609;-52
2022/05/16 09:25:03;;;;;;;2.15;1.92;;;;;;;;;;4417854;32;20284;-54
2022/05/16 09:30:23;;;;;;;6.95;2.65;;;;;;;;;;4417759;32;20576;-54
2022/05/16 09:32:53;;;;;;;5.20;2.55;;;;;;;;;;4415659;32;20355;-55
2022/05/16 09:35:32;;;;;;;5.05;2.08;;;;;;;;;;4417350;32;20273;-54
2022/05/16 09:37:58;;;;;;;5.80;1.75;;;;;;;;;;4417378;32;20292;-54
2022/05/16 09:40:37;;;;;;;2.33;2.12;;;;;;;;;;4417813;32;20326;-54
2022/05/16 09:43:15;;;;;;;8.98;2.05;;;;;;;;;;4418284;32;20229;-54
2022/05/16 09:45:45;;;;;;;4.03;2.30;;;;;;;;;;4417782;32;20302;-54
2022/05/16 09:48:24;;;;;;;2.92;2.25;;;;;;;;;;4427266;32;20259;-54
2022/05/16 09:51:03;;;;;;;1.92;1.67;;;;;;;;;;4427157;32;20239;-53
2022/05/16 09:53:34;;;;;;;3.05;1.85;;;;;;;;;;4402775;32;20315;-52
2022/05/16 09:56:09;;;;;;;4.70;2.28;;;;;;;;;;4402679;32;20240;-53
2022/05/16 09:58:49;;;;;;;6.15;2.42;;;;;;;;;;4402595;32;20233;-54
2022/05/16 10:01:31;;;;;;;4.12;2.08;;;;;;;;;;4403052;32;20308;-53
2022/05/16 10:04:09;;;;;;;3.95;2.12;;;;;;;;;;4397047;32;20263;-53
2022/05/16 10:06:37;;;;;;;5.37;1.95;;;;;;;;;;4412051;32;20233;-52
2022/05/16 10:09:09;;;;;;;10.18;2.15;;;;;;;;;;4418348;32;20275;-53
2022/05/16 10:11:37;;;;;;;1.98;1.50;;;;;;;;;;4418420;32;20236;-53
2022/05/16 10:14:03;;;;;;;7.87;2.05;;;;;;;;;;4418108;32;20299;-52
2022/05/16 10:16:31;;;;;;;4.25;2.50;;;;;;;;;;4417703;32;20241;-52
2022/05/16 10:19:03;;;;;;;4.72;2.20;;;;;;;;;;4418181;32;20320;-52
2022/05/16 10:21:40;;;;;;;7.55;1.52;;;;;;;;;;4417431;32;20502;-53
2022/05/16 10:24:08;;;;;;;5.68;2.55;;;;;;;;;;4417950;32;20269;-53
2022/05/16 10:26:41;;;;;;;3.62;1.65;;;;;;;;;;4417880;32;20573;-53
2022/05/16 10:29:15;;;;;;;3.53;2.12;;;;;;;;;;4419304;32;20224;-53
2022/05/16 10:34:36;;;;;;;10.13;2.25;;;;;;;;;;4420742;32;20807;-54
2022/05/16 10:37:04;;;;;;;4.50;2.20;;;;;;;;;;4420776;32;20209;-54
2022/05/16 10:39:30;;;;;;;5.15;1.85;;;;;;;;;;4416986;32;20255;-54
2022/05/16 10:42:06;;;;;;;3.08;1.48;;;;;;;;;;4420738;32;20216;-54
2022/05/16 10:44:48;;;;;;;3.50;1.48;;;;;;;;;;4421007;32;20223;-53
2022/05/16 10:47:24;;;;;;;2.87;1.52;;;;;;;;;;4416090;32;20278;-53
2022/05/16 10:50:11;;;;;;;1.85;1.37;;;;;;;;;;4405607;32;20287;-53
2022/05/16 10:52:40;;;;;;;6.72;1.60;;;;;;;;;;4405267;32;20245;-53
2022/05/16 10:55:06;;;;;;;4.47;1.98;;;;;;;;;;4405419;32;20672;-53
2022/05/16 10:58:01;;;;;;;1.77;1.30;;;;;;;;;;4405732;32;20229;-53
2022/05/16 11:00:37;;;;;;;3.47;1.83;;;;;;;;;;4405728;32;20210;-53
2022/05/16 11:03:16;;;;;;;5.20;1.58;;;;;;;;;;4413867;32;20330;-54
2022/05/16 11:06:03;;;;;;;3.80;1.40;;;;;;;;;;4416071;32;20213;-53
2022/05/16 11:09:03;;;;;;;5.53;1.83;;;;;;;;;;4405781;32;20288;-53
2022/05/16 11:11:46;;;;;;;2.33;1.60;;;;;;;;;;4405549;32;20270;-53
2022/05/16 11:14:40;;;;;;;5.43;1.62;;;;;;;;;;4405318;32;20259;-52
2022/05/16 11:17:23;;;;;;;6.97;2.10;;;;;;;;;;4416456;32;20363;-52
2022/05/16 11:20:07;;;;;;;3.03;1.62;;;;;;;;;;4420045;32;20189;-52
2022/05/16 11:22:42;;;;;;;5.12;2.00;;;;;;;;;;4419974;32;20272;-53
2022/05/16 11:25:16;;;;;;;3.55;1.77;;;;;;;;;;4400973;32;20323;-52
2022/05/16 11:27:57;;;;;;;6.70;1.40;;;;;;;;;;4420522;32;20225;-54
2022/05/16 11:30:43;;;;;;;3.60;1.60;;;;;;;;;;4419590;32;20217;-53
2022/05/16 11:33:15;;;;;;;6.47;1.80;;;;;;;;;;4420156;32;20700;-54
2022/05/16 11:35:46;;;;;;;6.12;1.65;;;;;;;;;;4420094;32;20201;-53
2022/05/16 11:38:26;;;;;;;4.75;1.67;;;;;;;;;;4419456;32;20263;-54
2022/05/16 11:40:59;;;;;;;3.85;1.15;;;;;;;;;;4419455;32;20330;-54
2022/05/16 11:43:28;;;;;;;4.10;1.95;;;;;;;;;;4416894;32;20226;-54
2022/05/16 11:46:18;;;;;;;7.20;1.75;;;;;;;;;;4404866;32;20766;-54
2022/05/16 11:49:02;;;;;;;5.82;1.77;;;;;;;;;;4431262;32;20320;-54
2022/05/16 11:51:27;;;;;;;3.22;1.67;;;;;;;;;;4435784;32;20445;-54
2022/05/16 11:53:58;;;;;;;3.65;1.48;;;;;;;;;;4436010;32;20291;-54
2022/05/16 12:02:15;;;;;;;6.22;2.17;;;;;;;;;;4411205;32;20386;-56
2022/05/16 12:04:50;;;;;;;1.90;1.35;;;;;;;;;;4420048;32;20239;-54
2022/05/16 12:07:28;;;;;;;2.97;2.10;;;;;;;;;;4405618;32;20224;-54
2022/05/16 12:10:16;;;;;;;3.75;1.50;;;;;;;;;;4405063;32;20275;-53
2022/05/16 12:12:44;;;;;;;2.20;1.52;;;;;;;;;;4405293;32;20252;-54
2022/05/16 12:15:16;;;;;;;3.70;1.80;;;;;;;;;;4404437;32;20227;-54
2022/05/16 12:17:54;;;;;;;3.50;1.85;;;;;;;;;;4419838;32;20263;-54
2022/05/16 12:20:35;;;;;;;3.37;1.67;;;;;;;;;;4419633;32;20205;-53
2022/05/16 12:23:01;;;;;;;2.97;1.50;;;;;;;;;;4419646;32;20245;-54
2022/05/16 12:25:26;;;;;;;6.37;2.00;;;;;;;;;;4419976;32;20213;-55
2022/05/16 12:28:15;;;;;;;1.50;1.25;;;;;;;;;;4419262;32;20275;-54
2022/05/16 12:30:42;;;;;;;3.58;1.50;;;;;;;;;;4419660;32;20228;-54
2022/05/16 12:33:29;;;;;;;3.60;1.62;;;;;;;;;;4419660;32;20281;-54
2022/05/16 12:35:54;;;;;;;4.70;1.65;;;;;;;;;;4409167;32;20316;-53
2022/05/16 12:38:22;;;;;;;3.83;1.80;;;;;;;;;;4419473;32;20495;-53
2022/05/16 12:41:05;;;;;;;3.30;1.73;;;;;;;;;;4409092;32;20235;-53
2022/05/16 12:43:54;;;;;;;3.95;1.62;;;;;;;;;;4404191;32;20661;-53
2022/05/16 12:47:00;;;;;;;3.70;1.77;;;;;;;;;;4404249;32;20229;-53
2022/05/16 12:49:50;;;;;;;3.05;1.65;;;;;;;;;;4404013;32;20220;-53
2022/05/16 12:52:37;;;;;;;1.37;1.20;;;;;;;;;;4403594;32;20225;-53
2022/05/16 12:55:12;;;;;;;3.42;1.35;;;;;;;;;;4409292;32;20266;-53
2022/05/16 12:58:09;;;;;;;7.00;1.90;;;;;;;;;;4419167;32;20266;-53
2022/05/16 13:01:05;;;;;;;4.40;2.03;;;;;;;;;;4392306;32;20545;-54
2022/05/16 13:03:48;;;;;;;3.92;1.73;;;;;;;;;;4418976;32;20680;-53
2022/05/16 13:06:40;;;;;;;3.15;1.83;;;;;;;;;;4410775;32;20296;-54
2022/05/16 13:09:38;;;;;;;4.53;1.60;;;;;;;;;;4404049;32;20241;-54
2022/05/16 13:12:41;;;;;;;3.33;1.70;;;;;;;;;;4403277;32;20341;-54
2022/05/16 13:15:34;;;;;;;12.52;1.90;;;;;;;;;;4414604;32;20638;-54
2022/05/16 13:18:01;;;;;;;1.92;1.35;;;;;;;;;;4412666;32;20264;-55
2022/05/16 13:20:32;;;;;;;2.50;1.35;;;;;;;;;;4418727;32;20231;-55
2022/05/16 13:22:58;;;;;;;3.97;1.92;;;;;;;;;;4418829;32;20577;-54
2022/05/16 13:25:24;;;;;;;2.75;1.67;;;;;;;;;;4418662;32;20292;-53
2022/05/16 13:30:41;;;;;;;7.32;1.80;;;;;;;;;;4418045;32;20247;-54
2022/05/16 13:33:40;;;;;;;2.03;1.05;;;;;;;;;;4417777;32;20259;-54
2022/05/16 13:36:31;;;;;;;1.98;1.52;;;;;;;;;;4379279;32;20266;-55
2022/05/16 13:39:00;;;;;;;3.40;1.87;;;;;;;;;;4410163;32;20343;-54
2022/05/16 13:41:28;;;;;;;8.77;1.67;;;;;;;;;;4417915;32;20394;-55
2022/05/16 13:43:54;;;;;;;4.72;1.87;;;;;;;;;;4415816;32;20351;-54
2022/05/16 13:46:21;;;;;;;10.50;2.65;;;;;;;;;;4417848;32;20241;-54
2022/05/16 13:49:05;;;;;;;2.90;2.12;;;;;;;;;;4416700;32;20233;-54
2022/05/16 13:51:41;;;;;;;2.47;1.45;;;;;;;;;;4418206;32;20209;-53
2022/05/16 13:54:13;;;;;;;6.20;1.73;;;;;;;;;;4418611;32;20220;-54
2022/05/16 13:56:45;;;;;;;11.20;2.05;;;;;;;;;;4418548;32;20227;-54
2022/05/16 13:59:11;;;;;;;6.80;1.77;;;;;;;;;;4404766;32;20266;-54
2022/05/16 14:01:37;;;;;;;5.32;1.70;;;;;;;;;;4399067;32;20210;-54
2022/05/16 14:04:06;;;;;;;5.60;1.65;;;;;;;;;;4398364;32;20775;-54
2022/05/16 14:06:45;;;;;;;5.75;1.87;;;;;;;;;;4398450;32;20465;-54
2022/05/16 14:09:16;;;;;;;16.35;2.55;;;;;;;;;;4398943;32;20745;-54
2022/05/16 14:11:43;;;;;;;3.37;1.80;;;;;;;;;;4412656;32;20522;-54
2022/05/16 14:14:11;;;;;;;3.30;1.80;;;;;;;;;;4415502;32;20299;-56
2022/05/16 14:16:42;;;;;;;2.20;1.65;;;;;;;;;;4408516;32;20255;-54
2022/05/16 14:19:13;;;;;;;5.60;1.73;;;;;;;;;;4413708;32;20295;-53
2022/05/16 14:22:15;;;;;;;4.32;1.30;;;;;;;;;;4417939;32;20232;-54
2022/05/16 14:24:48;;;;;;;4.78;2.30;;;;;;;;;;4383784;32;21080;-54
2022/05/16 14:27:43;;;;;;;4.18;1.65;;;;;;;;;;4415418;32;20295;-53
2022/05/16 14:30:18;;;;;;;8.32;2.20;;;;;;;;;;4416497;32;20210;-53
2022/05/16 14:32:59;;;;;;;4.20;2.30;;;;;;;;;;4417767;32;20284;-54
2022/05/16 14:35:29;;;;;;;6.60;1.95;;;;;;;;;;4403000;32;20330;-54
2022/05/16 14:38:00;;;;;;;3.17;1.90;;;;;;;;;;4407105;32;20347;-54
2022/05/16 14:40:35;;;;;;;5.12;1.92;;;;;;;;;;4417872;32;20217;-55
2022/05/16 14:43:09;;;;;;;6.25;2.45;;;;;;;;;;4417785;32;20680;-54
2022/05/16 14:48:35;;;;;;;6.22;1.70;;;;;;;;;;4417321;32;20428;-54
2022/05/16 14:51:04;;;;;;;6.10;2.10;;;;;;;;;;4403958;32;20288;-54
2022/05/16 14:53:29;;;;;;;5.35;2.05;;;;;;;;;;4418218;32;20229;-54
2022/05/16 14:55:56;;;;;;;6.22;2.35;;;;;;;;;;4417768;32;20197;-54
2022/05/16 14:58:22;;;;;;;2.37;1.50;;;;;;;;;;4412362;32;20234;-54
2022/05/16 15:06:18;;;;;;;2.92;2.08;;;;;;;;;;4412519;32;20247;-53
2022/05/16 15:08:47;;;;;;;14.77;2.10;;;;;;;;;;4416365;32;20384;-53
2022/05/16 15:11:14;;;;;;;3.30;1.42;;;;;;;;;;4417339;32;20241;-54
2022/05/16 15:13:40;;;;;;;5.60;1.70;;;;;;;;;;4404356;32;20225;-53
2022/05/16 15:16:05;;;;;;;5.75;1.42;;;;;;;;;;4419618;32;20244;-53
2022/05/16 15:18:31;;;;;;;6.80;2.17;;;;;;;;;;4419656;32;20233;-53
2022/05/16 15:20:58;;;;;;;3.97;1.80;;;;;;;;;;4419487;32;20800;-53
2022/05/16 15:23:27;;;;;;;10.57;2.65;;;;;;;;;;4419439;32;20308;-54
2022/05/16 15:25:53;;;;;;;4.40;2.10;;;;;;;;;;4419675;32;20222;-52
2022/05/16 15:28:19;;;;;;;6.43;1.77;;;;;;;;;;4419949;32;20247;-53
2022/05/16 15:30:45;;;;;;;5.82;2.00;;;;;;;;;;4419343;32;20609;-55
2022/05/16 15:33:14;;;;;;;11.82;1.90;;;;;;;;;;4418617;32;20236;-55
2022/05/16 15:35:43;;;;;;;4.35;1.92;;;;;;;;;;4417722;32;20217;-54
2022/05/16 15:38:10;;;;;;;18.92;3.05;;;;;;;;;;4419505;32;20271;-56
2022/05/16 15:40:38;;;;;;;7.40;2.05;;;;;;;;;;4419849;32;20221;-54
2022/05/16 15:43:05;;;;;;;3.80;1.67;;;;;;;;;;4405746;32;20335;-54
2022/05/16 15:45:30;;;;;;;5.50;2.05;;;;;;;;;;4419760;32;20580;-54
2022/05/16 15:47:56;;;;;;;5.47;2.33;;;;;;;;;;4419827;32;20241;-54
2022/05/16 15:50:26;;;;;;;9.80;2.00;;;;;;;;;;4419749;32;20221;-54
2022/05/16 15:52:52;;;;;;;6.15;2.67;;;;;;;;;;4419880;32;20312;-54